Red Mesa, Arizona
Current Conditions -  °F | °C
As of 10:53 AM on Thursday 30 Oct 2014 (Local Time) from KCEZ Reporting Station
Clear Clear  
Wind Chill: 55°   Ceiling: Unl
Heat Index: 55°   Visibility: 10mi
Dew Point: 21°   Wind: 0mph
Humidity: 27%   Direction: NA
Pressure: 30.36"   Gusts: NA
Location:  36.7518°N, 109.365°W
Report Text: KCEZ 301653Z AUTO 00000KT 10SM CLR 13/M06 A3036 RMK AO2 SLP255 T01281061
Loading
Personal Weather Stations






























Interactive Weather Map
Tropical Storm Tracking
New forecast layout! Learn more

10-Day Weather Forecast

Advertisements
Track Severe Weather on mobile